sensor_id;sensor_type;location;lat;lon;timestamp;P1;durP1;ratioP1;P2;durP2;ratioP2
59458;SDS011;45269;43.568;22.244;2023-05-29T00:01:19;9.63;;;7.95;;
59458;SDS011;45269;43.568;22.244;2023-05-29T00:03:46;7.68;;;6.90;;
59458;SDS011;45269;43.568;22.244;2023-05-29T00:06:11;7.88;;;6.75;;
59458;SDS011;45269;43.568;22.244;2023-05-29T00:08:37;11.15;;;6.32;;
59458;SDS011;45269;43.568;22.244;2023-05-29T00:11:03;6.55;;;5.95;;
59458;SDS011;45269;43.568;22.244;2023-05-29T00:13:28;6.45;;;5.65;;
59458;SDS011;45269;43.568;22.244;2023-05-29T00:15:53;8.77;;;6.43;;
59458;SDS011;45269;43.568;22.244;2023-05-29T00:18:19;7.38;;;6.65;;
59458;SDS011;45269;43.568;22.244;2023-05-29T00:20:44;8.18;;;6.90;;
59458;SDS011;45269;43.568;22.244;2023-05-29T00:23:10;9.25;;;6.85;;
59458;SDS011;45269;43.568;22.244;2023-05-29T00:25:36;7.82;;;7.03;;
59458;SDS011;45269;43.568;22.244;2023-05-29T00:28:01;8.43;;;6.95;;
59458;SDS011;45269;43.568;22.244;2023-05-29T00:30:26;8.00;;;7.20;;
59458;SDS011;45269;43.568;22.244;2023-05-29T00:32:52;7.78;;;6.95;;
59458;SDS011;45269;43.568;22.244;2023-05-29T00:35:17;7.03;;;6.43;;
59458;SDS011;45269;43.568;22.244;2023-05-29T00:37:43;8.35;;;7.50;;
59458;SDS011;45269;43.568;22.244;2023-05-29T00:40:08;8.30;;;7.60;;
59458;SDS011;45269;43.568;22.244;2023-05-29T00:42:34;8.38;;;7.57;;
59458;SDS011;45269;43.568;22.244;2023-05-29T00:44:59;10.32;;;7.53;;
59458;SDS011;45269;43.568;22.244;2023-05-29T00:47:25;9.02;;;8.23;;
59458;SDS011;45269;43.568;22.244;2023-05-29T00:49:50;8.57;;;7.78;;
59458;SDS011;45269;43.568;22.244;2023-05-29T00:52:17;9.68;;;8.57;;
59458;SDS011;45269;43.568;22.244;2023-05-29T00:54:43;9.63;;;8.73;;
59458;SDS011;45269;43.568;22.244;2023-05-29T00:57:09;11.13;;;8.05;;
59458;SDS011;45269;43.568;22.244;2023-05-29T00:59:35;11.65;;;8.43;;
59458;SDS011;45269;43.568;22.244;2023-05-29T01:02:01;9.02;;;8.10;;
59458;SDS011;45269;43.568;22.244;2023-05-29T01:04:27;8.00;;;7.30;;
59458;SDS011;45269;43.568;22.244;2023-05-29T01:06:53;8.55;;;7.72;;
59458;SDS011;45269;43.568;22.244;2023-05-29T01:09:18;8.40;;;7.70;;
59458;SDS011;45269;43.568;22.244;2023-05-29T01:11:55;7.75;;;7.13;;
59458;SDS011;45269;43.568;22.244;2023-05-29T01:14:28;8.23;;;7.43;;
59458;SDS011;45269;43.568;22.244;2023-05-29T01:16:56;8.32;;;7.63;;
59458;SDS011;45269;43.568;22.244;2023-05-29T01:19:41;8.43;;;7.80;;
59458;SDS011;45269;43.568;22.244;2023-05-29T01:22:12;9.20;;;8.40;;
59458;SDS011;45269;43.568;22.244;2023-05-29T01:24:49;8.23;;;7.53;;
59458;SDS011;45269;43.568;22.244;2023-05-29T01:27:18;8.90;;;8.15;;
59458;SDS011;45269;43.568;22.244;2023-05-29T01:29:44;9.18;;;8.38;;
59458;SDS011;45269;43.568;22.244;2023-05-29T01:32:11;8.27;;;7.57;;
59458;SDS011;45269;43.568;22.244;2023-05-29T01:34:37;9.82;;;8.40;;
59458;SDS011;45269;43.568;22.244;2023-05-29T01:37:02;8.48;;;7.78;;
59458;SDS011;45269;43.568;22.244;2023-05-29T01:39:27;8.05;;;7.30;;
59458;SDS011;45269;43.568;22.244;2023-05-29T01:41:53;8.93;;;8.10;;
59458;SDS011;45269;43.568;22.244;2023-05-29T01:44:20;8.77;;;8.07;;
59458;SDS011;45269;43.568;22.244;2023-05-29T01:46:45;9.00;;;8.10;;
59458;SDS011;45269;43.568;22.244;2023-05-29T01:49:11;8.70;;;8.00;;
59458;SDS011;45269;43.568;22.244;2023-05-29T01:51:40;9.50;;;8.20;;
59458;SDS011;45269;43.568;22.244;2023-05-29T01:54:06;8.93;;;8.10;;
59458;SDS011;45269;43.568;22.244;2023-05-29T01:56:31;8.75;;;7.78;;
59458;SDS011;45269;43.568;22.244;2023-05-29T01:58:57;8.20;;;7.40;;
59458;SDS011;45269;43.568;22.244;2023-05-29T02:01:23;8.63;;;7.28;;
59458;SDS011;45269;43.568;22.244;2023-05-29T02:03:48;9.77;;;7.80;;
59458;SDS011;45269;43.568;22.244;2023-05-29T02:06:14;8.20;;;7.40;;
59458;SDS011;45269;43.568;22.244;2023-05-29T02:08:40;7.30;;;6.60;;
59458;SDS011;45269;43.568;22.244;2023-05-29T02:11:05;6.82;;;6.13;;
59458;SDS011;45269;43.568;22.244;2023-05-29T02:13:31;6.88;;;6.28;;
59458;SDS011;45269;43.568;22.244;2023-05-29T02:15:56;6.78;;;6.03;;
59458;SDS011;45269;43.568;22.244;2023-05-29T02:18:22;9.82;;;6.43;;
59458;SDS011;45269;43.568;22.244;2023-05-29T02:20:47;7.18;;;6.32;;
59458;SDS011;45269;43.568;22.244;2023-05-29T02:23:12;6.78;;;6.18;;
59458;SDS011;45269;43.568;22.244;2023-05-29T02:25:38;7.13;;;6.43;;
59458;SDS011;45269;43.568;22.244;2023-05-29T02:28:05;9.07;;;6.95;;
59458;SDS011;45269;43.568;22.244;2023-05-29T02:30:30;7.80;;;6.47;;
59458;SDS011;45269;43.568;22.244;2023-05-29T02:32:56;7.90;;;6.60;;
59458;SDS011;45269;43.568;22.244;2023-05-29T02:35:21;9.73;;;7.25;;
59458;SDS011;45269;43.568;22.244;2023-05-29T02:37:51;7.57;;;6.38;;
59458;SDS011;45269;43.568;22.244;2023-05-29T02:40:17;8.80;;;7.90;;
59458;SDS011;45269;43.568;22.244;2023-05-29T02:42:42;9.85;;;7.32;;
59458;SDS011;45269;43.568;22.244;2023-05-29T02:45:08;8.85;;;8.07;;
59458;SDS011;45269;43.568;22.244;2023-05-29T02:47:33;10.60;;;9.50;;
59458;SDS011;45269;43.568;22.244;2023-05-29T02:49:59;8.82;;;7.72;;
59458;SDS011;45269;43.568;22.244;2023-05-29T02:52:24;8.18;;;7.38;;
59458;SDS011;45269;43.568;22.244;2023-05-29T02:54:50;8.48;;;6.95;;
59458;SDS011;45269;43.568;22.244;2023-05-29T02:57:15;9.15;;;6.72;;
59458;SDS011;45269;43.568;22.244;2023-05-29T02:59:41;8.52;;;7.72;;
59458;SDS011;45269;43.568;22.244;2023-05-29T03:02:06;8.88;;;7.97;;
59458;SDS011;45269;43.568;22.244;2023-05-29T03:04:31;9.85;;;8.85;;
59458;SDS011;45269;43.568;22.244;2023-05-29T03:06:57;9.50;;;8.52;;
59458;SDS011;45269;43.568;22.244;2023-05-29T03:09:23;9.82;;;9.02;;
59458;SDS011;45269;43.568;22.244;2023-05-29T03:11:48;11.13;;;9.70;;
59458;SDS011;45269;43.568;22.244;2023-05-29T03:14:15;10.52;;;9.55;;
59458;SDS011;45269;43.568;22.244;2023-05-29T03:16:40;10.85;;;9.82;;
59458;SDS011;45269;43.568;22.244;2023-05-29T03:19:09;11.20;;;9.30;;
59458;SDS011;45269;43.568;22.244;2023-05-29T03:21:34;10.98;;;9.98;;
59458;SDS011;45269;43.568;22.244;2023-05-29T03:24:01;13.18;;;9.40;;
59458;SDS011;45269;43.568;22.244;2023-05-29T03:26:27;11.88;;;8.45;;
59458;SDS011;45269;43.568;22.244;2023-05-29T03:28:53;9.57;;;8.57;;
59458;SDS011;45269;43.568;22.244;2023-05-29T03:31:18;9.63;;;8.48;;
59458;SDS011;45269;43.568;22.244;2023-05-29T03:33:43;9.57;;;8.02;;
59458;SDS011;45269;43.568;22.244;2023-05-29T03:36:10;9.38;;;8.38;;
59458;SDS011;45269;43.568;22.244;2023-05-29T03:38:36;10.10;;;9.10;;
59458;SDS011;45269;43.568;22.244;2023-05-29T03:41:01;9.13;;;8.35;;
59458;SDS011;45269;43.568;22.244;2023-05-29T03:43:26;10.18;;;9.27;;
59458;SDS011;45269;43.568;22.244;2023-05-29T03:45:52;10.68;;;9.32;;
59458;SDS011;45269;43.568;22.244;2023-05-29T03:48:17;11.43;;;10.25;;
59458;SDS011;45269;43.568;22.244;2023-05-29T03:50:44;11.50;;;10.40;;
59458;SDS011;45269;43.568;22.244;2023-05-29T03:53:09;11.05;;;9.88;;
59458;SDS011;45269;43.568;22.244;2023-05-29T03:55:35;11.20;;;10.00;;
59458;SDS011;45269;43.568;22.244;2023-05-29T03:58:00;12.30;;;10.90;;
59458;SDS011;45269;43.568;22.244;2023-05-29T04:00:26;11.50;;;9.40;;
59458;SDS011;45269;43.568;22.244;2023-05-29T04:02:51;11.07;;;10.10;;
59458;SDS011;45269;43.568;22.244;2023-05-29T04:05:17;11.05;;;10.10;;
59458;SDS011;45269;43.568;22.244;2023-05-29T04:07:42;11.82;;;10.63;;
59458;SDS011;45269;43.568;22.244;2023-05-29T04:10:08;11.10;;;10.07;;
59458;SDS011;45269;43.568;22.244;2023-05-29T04:12:33;12.07;;;10.77;;
59458;SDS011;45269;43.568;22.244;2023-05-29T04:14:59;11.63;;;10.00;;
59458;SDS011;45269;43.568;22.244;2023-05-29T04:17:24;10.70;;;9.65;;
59458;SDS011;45269;43.568;22.244;2023-05-29T04:19:49;10.07;;;9.23;;
59458;SDS011;45269;43.568;22.244;2023-05-29T04:22:15;11.13;;;10.13;;
59458;SDS011;45269;43.568;22.244;2023-05-29T04:24:40;12.35;;;10.60;;
59458;SDS011;45269;43.568;22.244;2023-05-29T04:27:07;11.18;;;10.02;;
59458;SDS011;45269;43.568;22.244;2023-05-29T04:29:34;13.60;;;10.55;;
59458;SDS011;45269;43.568;22.244;2023-05-29T04:31:59;14.45;;;10.75;;
59458;SDS011;45269;43.568;22.244;2023-05-29T04:34:28;15.02;;;11.30;;
59458;SDS011;45269;43.568;22.244;2023-05-29T04:36:53;11.27;;;10.10;;
59458;SDS011;45269;43.568;22.244;2023-05-29T04:39:19;12.40;;;10.73;;
59458;SDS011;45269;43.568;22.244;2023-05-29T04:41:47;12.50;;;11.38;;
59458;SDS011;45269;43.568;22.244;2023-05-29T04:44:13;12.23;;;11.15;;
59458;SDS011;45269;43.568;22.244;2023-05-29T04:46:38;12.82;;;11.30;;
59458;SDS011;45269;43.568;22.244;2023-05-29T04:49:03;13.23;;;11.90;;
59458;SDS011;45269;43.568;22.244;2023-05-29T04:51:29;12.88;;;11.60;;
59458;SDS011;45269;43.568;22.244;2023-05-29T04:53:55;13.05;;;11.65;;
59458;SDS011;45269;43.568;22.244;2023-05-29T04:56:20;14.27;;;12.38;;
59458;SDS011;45269;43.568;22.244;2023-05-29T04:58:47;14.00;;;12.68;;
59458;SDS011;45269;43.568;22.244;2023-05-29T05:01:12;13.18;;;11.88;;
59458;SDS011;45269;43.568;22.244;2023-05-29T05:03:42;13.35;;;12.15;;
59458;SDS011;45269;43.568;22.244;2023-05-29T05:06:07;14.02;;;12.43;;
59458;SDS011;45269;43.568;22.244;2023-05-29T05:08:33;14.80;;;13.15;;
59458;SDS011;45269;43.568;22.244;2023-05-29T05:10:59;15.13;;;13.65;;
59458;SDS011;45269;43.568;22.244;2023-05-29T05:13:25;16.48;;;14.55;;
59458;SDS011;45269;43.568;22.244;2023-05-29T05:15:50;19.02;;;17.20;;
59458;SDS011;45269;43.568;22.244;2023-05-29T05:18:16;19.48;;;17.48;;
59458;SDS011;45269;43.568;22.244;2023-05-29T05:20:41;19.13;;;17.27;;
59458;SDS011;45269;43.568;22.244;2023-05-29T05:23:06;19.40;;;17.48;;
59458;SDS011;45269;43.568;22.244;2023-05-29T05:25:32;19.33;;;17.45;;
59458;SDS011;45269;43.568;22.244;2023-05-29T05:28:00;20.33;;;16.95;;
59458;SDS011;45269;43.568;22.244;2023-05-29T05:30:25;20.77;;;18.02;;
59458;SDS011;45269;43.568;22.244;2023-05-29T05:32:50;19.95;;;16.55;;
59458;SDS011;45269;43.568;22.244;2023-05-29T05:35:16;21.65;;;18.02;;
59458;SDS011;45269;43.568;22.244;2023-05-29T05:37:41;22.15;;;17.13;;
59458;SDS011;45269;43.568;22.244;2023-05-29T05:40:07;24.10;;;19.20;;
59458;SDS011;45269;43.568;22.244;2023-05-29T05:42:33;22.83;;;18.25;;
59458;SDS011;45269;43.568;22.244;2023-05-29T05:44:59;18.88;;;16.88;;
59458;SDS011;45269;43.568;22.244;2023-05-29T05:47:24;22.30;;;17.42;;
59458;SDS011;45269;43.568;22.244;2023-05-29T05:49:49;24.98;;;20.48;;
59458;SDS011;45269;43.568;22.244;2023-05-29T05:52:16;19.33;;;17.00;;
59458;SDS011;45269;43.568;22.244;2023-05-29T05:54:42;19.17;;;15.80;;
59458;SDS011;45269;43.568;22.244;2023-05-29T05:57:07;17.88;;;15.90;;
59458;SDS011;45269;43.568;22.244;2023-05-29T05:59:33;20.45;;;16.10;;
59458;SDS011;45269;43.568;22.244;2023-05-29T06:01:58;20.80;;;16.15;;
59458;SDS011;45269;43.568;22.244;2023-05-29T06:04:24;18.75;;;16.77;;
59458;SDS011;45269;43.568;22.244;2023-05-29T06:06:49;19.58;;;17.13;;
59458;SDS011;45269;43.568;22.244;2023-05-29T06:09:14;17.67;;;15.02;;
59458;SDS011;45269;43.568;22.244;2023-05-29T06:11:40;18.20;;;16.05;;
59458;SDS011;45269;43.568;22.244;2023-05-29T06:14:05;18.95;;;14.88;;
59458;SDS011;45269;43.568;22.244;2023-05-29T06:16:31;18.30;;;16.40;;
59458;SDS011;45269;43.568;22.244;2023-05-29T06:18:56;17.58;;;15.38;;
59458;SDS011;45269;43.568;22.244;2023-05-29T06:21:22;19.67;;;16.35;;
59458;SDS011;45269;43.568;22.244;2023-05-29T06:23:47;20.17;;;15.30;;
59458;SDS011;45269;43.568;22.244;2023-05-29T06:26:13;18.48;;;14.90;;
59458;SDS011;45269;43.568;22.244;2023-05-29T06:28:41;16.95;;;15.00;;
59458;SDS011;45269;43.568;22.244;2023-05-29T06:31:06;18.65;;;15.10;;
59458;SDS011;45269;43.568;22.244;2023-05-29T06:33:31;17.30;;;14.27;;
59458;SDS011;45269;43.568;22.244;2023-05-29T06:35:57;18.90;;;14.55;;
59458;SDS011;45269;43.568;22.244;2023-05-29T06:38:22;19.65;;;15.45;;
59458;SDS011;45269;43.568;22.244;2023-05-29T06:40:48;17.67;;;15.40;;
59458;SDS011;45269;43.568;22.244;2023-05-29T06:43:13;18.63;;;15.93;;
59458;SDS011;45269;43.568;22.244;2023-05-29T06:45:38;20.13;;;16.77;;
59458;SDS011;45269;43.568;22.244;2023-05-29T06:48:04;19.40;;;16.98;;
59458;SDS011;45269;43.568;22.244;2023-05-29T06:50:29;17.92;;;16.02;;
59458;SDS011;45269;43.568;22.244;2023-05-29T06:52:55;17.55;;;15.07;;
59458;SDS011;45269;43.568;22.244;2023-05-29T06:55:20;19.30;;;15.32;;
59458;SDS011;45269;43.568;22.244;2023-05-29T06:57:46;17.80;;;13.95;;
59458;SDS011;45269;43.568;22.244;2023-05-29T07:00:11;17.08;;;15.25;;
59458;SDS011;45269;43.568;22.244;2023-05-29T07:02:37;16.98;;;15.27;;
59458;SDS011;45269;43.568;22.244;2023-05-29T07:05:03;18.35;;;15.77;;
59458;SDS011;45269;43.568;22.244;2023-05-29T07:07:28;18.00;;;14.50;;
59458;SDS011;45269;43.568;22.244;2023-05-29T07:09:54;17.55;;;15.52;;
59458;SDS011;45269;43.568;22.244;2023-05-29T07:12:19;17.13;;;14.23;;
59458;SDS011;45269;43.568;22.244;2023-05-29T07:14:44;16.50;;;14.65;;
59458;SDS011;45269;43.568;22.244;2023-05-29T07:17:13;15.93;;;14.23;;
59458;SDS011;45269;43.568;22.244;2023-05-29T07:19:38;17.10;;;15.10;;
59458;SDS011;45269;43.568;22.244;2023-05-29T07:22:03;17.13;;;15.30;;
59458;SDS011;45269;43.568;22.244;2023-05-29T07:24:29;16.52;;;14.68;;
59458;SDS011;45269;43.568;22.244;2023-05-29T07:26:54;17.02;;;13.00;;
59458;SDS011;45269;43.568;22.244;2023-05-29T07:29:20;14.20;;;12.70;;
59458;SDS011;45269;43.568;22.244;2023-05-29T07:31:48;14.18;;;12.20;;
59458;SDS011;45269;43.568;22.244;2023-05-29T07:34:13;13.20;;;11.98;;
59458;SDS011;45269;43.568;22.244;2023-05-29T07:36:55;19.77;;;12.25;;
59458;SDS011;45269;43.568;22.244;2023-05-29T07:39:21;13.43;;;12.13;;
59458;SDS011;45269;43.568;22.244;2023-05-29T07:41:46;13.88;;;11.50;;
59458;SDS011;45269;43.568;22.244;2023-05-29T07:44:11;14.13;;;12.05;;
59458;SDS011;45269;43.568;22.244;2023-05-29T07:46:37;13.02;;;11.68;;
59458;SDS011;45269;43.568;22.244;2023-05-29T07:49:02;12.50;;;11.20;;
59458;SDS011;45269;43.568;22.244;2023-05-29T07:51:27;13.55;;;12.15;;
59458;SDS011;45269;43.568;22.244;2023-05-29T07:53:53;13.35;;;10.77;;
59458;SDS011;45269;43.568;22.244;2023-05-29T07:56:18;12.20;;;10.48;;
59458;SDS011;45269;43.568;22.244;2023-05-29T07:58:43;11.38;;;10.27;;
59458;SDS011;45269;43.568;22.244;2023-05-29T08:01:09;11.75;;;10.07;;
59458;SDS011;45269;43.568;22.244;2023-05-29T08:03:34;10.90;;;9.88;;
59458;SDS011;45269;43.568;22.244;2023-05-29T08:05:59;11.52;;;10.43;;
59458;SDS011;45269;43.568;22.244;2023-05-29T08:08:25;11.20;;;10.10;;
59458;SDS011;45269;43.568;22.244;2023-05-29T08:10:50;11.48;;;10.20;;
59458;SDS011;45269;43.568;22.244;2023-05-29T08:13:15;10.30;;;9.27;;
59458;SDS011;45269;43.568;22.244;2023-05-29T08:15:41;12.02;;;10.77;;
59458;SDS011;45269;43.568;22.244;2023-05-29T08:18:06;10.25;;;9.25;;
59458;SDS011;45269;43.568;22.244;2023-05-29T08:20:31;12.57;;;10.02;;
59458;SDS011;45269;43.568;22.244;2023-05-29T08:22:59;9.65;;;8.65;;
59458;SDS011;45269;43.568;22.244;2023-05-29T08:25:24;10.35;;;9.35;;
59458;SDS011;45269;43.568;22.244;2023-05-29T08:27:50;12.77;;;9.32;;
59458;SDS011;45269;43.568;22.244;2023-05-29T08:30:15;9.85;;;8.88;;
59458;SDS011;45269;43.568;22.244;2023-05-29T08:32:41;10.48;;;7.85;;
59458;SDS011;45269;43.568;22.244;2023-05-29T08:35:06;11.00;;;9.05;;
59458;SDS011;45269;43.568;22.244;2023-05-29T08:37:32;9.75;;;8.82;;
59458;SDS011;45269;43.568;22.244;2023-05-29T08:39:57;9.20;;;8.40;;
59458;SDS011;45269;43.568;22.244;2023-05-29T08:42:32;13.48;;;8.73;;
59458;SDS011;45269;43.568;22.244;2023-05-29T08:44:59;9.00;;;8.20;;
59458;SDS011;45269;43.568;22.244;2023-05-29T08:47:27;8.50;;;7.70;;
59458;SDS011;45269;43.568;22.244;2023-05-29T08:49:52;8.98;;;7.53;;
59458;SDS011;45269;43.568;22.244;2023-05-29T08:52:24;8.77;;;7.88;;
59458;SDS011;45269;43.568;22.244;2023-05-29T08:54:53;7.75;;;6.97;;
59458;SDS011;45269;43.568;22.244;2023-05-29T08:57:19;8.63;;;6.90;;
59458;SDS011;45269;43.568;22.244;2023-05-29T08:59:45;7.90;;;7.13;;
59458;SDS011;45269;43.568;22.244;2023-05-29T09:02:14;9.67;;;7.20;;
59458;SDS011;45269;43.568;22.244;2023-05-29T09:04:43;6.63;;;5.55;;
59458;SDS011;45269;43.568;22.244;2023-05-29T09:07:13;6.22;;;5.65;;
59458;SDS011;45269;43.568;22.244;2023-05-29T09:09:39;8.30;;;6.63;;
59458;SDS011;45269;43.568;22.244;2023-05-29T09:12:04;7.43;;;6.72;;
59458;SDS011;45269;43.568;22.244;2023-05-29T09:14:42;8.13;;;6.35;;
59458;SDS011;45269;43.568;22.244;2023-05-29T09:19:35;6.20;;;5.70;;
59458;SDS011;45269;43.568;22.244;2023-05-29T09:22:06;6.90;;;6.03;;
59458;SDS011;45269;43.568;22.244;2023-05-29T09:24:33;8.18;;;5.93;;
59458;SDS011;45269;43.568;22.244;2023-05-29T09:26:59;6.38;;;5.78;;
59458;SDS011;45269;43.568;22.244;2023-05-29T09:29:24;7.43;;;5.38;;
59458;SDS011;45269;43.568;22.244;2023-05-29T09:31:50;6.60;;;6.05;;
59458;SDS011;45269;43.568;22.244;2023-05-29T09:34:16;7.75;;;5.90;;
59458;SDS011;45269;43.568;22.244;2023-05-29T09:36:41;6.05;;;5.30;;
59458;SDS011;45269;43.568;22.244;2023-05-29T09:39:07;5.20;;;4.65;;
59458;SDS011;45269;43.568;22.244;2023-05-29T09:41:34;5.40;;;4.88;;
59458;SDS011;45269;43.568;22.244;2023-05-29T09:44:00;5.40;;;4.68;;
59458;SDS011;45269;43.568;22.244;2023-05-29T09:46:26;5.25;;;4.68;;
59458;SDS011;45269;43.568;22.244;2023-05-29T09:48:51;5.32;;;4.80;;
59458;SDS011;45269;43.568;22.244;2023-05-29T09:51:23;5.85;;;4.78;;
59458;SDS011;45269;43.568;22.244;2023-05-29T09:53:49;7.90;;;5.63;;
59458;SDS011;45269;43.568;22.244;2023-05-29T09:56:16;5.40;;;4.95;;
59458;SDS011;45269;43.568;22.244;2023-05-29T09:58:43;5.53;;;4.93;;
59458;SDS011;45269;43.568;22.244;2023-05-29T10:01:15;5.57;;;4.68;;
59458;SDS011;45269;43.568;22.244;2023-05-29T10:03:43;5.63;;;5.18;;
59458;SDS011;45269;43.568;22.244;2023-05-29T10:06:10;5.47;;;4.90;;
59458;SDS011;45269;43.568;22.244;2023-05-29T10:08:37;5.75;;;5.15;;
59458;SDS011;45269;43.568;22.244;2023-05-29T10:11:03;5.38;;;4.88;;
59458;SDS011;45269;43.568;22.244;2023-05-29T10:13:34;7.55;;;5.32;;
59458;SDS011;45269;43.568;22.244;2023-05-29T10:16:01;5.88;;;5.38;;
59458;SDS011;45269;43.568;22.244;2023-05-29T10:18:35;6.93;;;5.82;;
59458;SDS011;45269;43.568;22.244;2023-05-29T10:21:02;6.78;;;6.18;;
59458;SDS011;45269;43.568;22.244;2023-05-29T10:23:28;6.72;;;6.13;;
59458;SDS011;45269;43.568;22.244;2023-05-29T10:25:56;6.63;;;5.93;;
59458;SDS011;45269;43.568;22.244;2023-05-29T10:28:24;6.10;;;5.60;;
59458;SDS011;45269;43.568;22.244;2023-05-29T10:31:08;6.47;;;5.93;;
59458;SDS011;45269;43.568;22.244;2023-05-29T10:36:18;6.55;;;5.95;;
59458;SDS011;45269;43.568;22.244;2023-05-29T10:38:44;5.80;;;5.20;;
59458;SDS011;45269;43.568;22.244;2023-05-29T10:43:57;6.80;;;6.10;;
59458;SDS011;45269;43.568;22.244;2023-05-29T10:49:15;5.93;;;5.05;;
59458;SDS011;45269;43.568;22.244;2023-05-29T10:51:40;8.18;;;5.55;;
59458;SDS011;45269;43.568;22.244;2023-05-29T10:54:05;5.50;;;5.00;;
59458;SDS011;45269;43.568;22.244;2023-05-29T11:08:45;5.22;;;4.72;;
59458;SDS011;45269;43.568;22.244;2023-05-29T11:13:39;4.47;;;4.07;;
59458;SDS011;45269;43.568;22.244;2023-05-29T11:18:50;4.18;;;3.88;;
59458;SDS011;45269;43.568;22.244;2023-05-29T11:23:48;4.45;;;3.85;;
59458;SDS011;45269;43.568;22.244;2023-05-29T11:26:15;4.60;;;4.20;;
59458;SDS011;45269;43.568;22.244;2023-05-29T11:28:42;4.72;;;3.75;;
59458;SDS011;45269;43.568;22.244;2023-05-29T11:31:10;5.85;;;3.78;;
59458;SDS011;45269;43.568;22.244;2023-05-29T11:33:40;5.47;;;3.70;;
59458;SDS011;45269;43.568;22.244;2023-05-29T11:36:08;5.43;;;3.92;;
59458;SDS011;45269;43.568;22.244;2023-05-29T11:38:35;4.68;;;4.13;;
59458;SDS011;45269;43.568;22.244;2023-05-29T11:41:01;4.57;;;4.03;;
59458;SDS011;45269;43.568;22.244;2023-05-29T11:43:26;4.72;;;4.20;;
59458;SDS011;45269;43.568;22.244;2023-05-29T11:45:52;4.78;;;4.25;;
59458;SDS011;45269;43.568;22.244;2023-05-29T11:48:17;4.88;;;4.20;;
59458;SDS011;45269;43.568;22.244;2023-05-29T11:50:43;5.18;;;4.18;;
59458;SDS011;45269;43.568;22.244;2023-05-29T11:53:08;4.85;;;4.45;;
59458;SDS011;45269;43.568;22.244;2023-05-29T11:55:34;6.55;;;4.10;;
59458;SDS011;45269;43.568;22.244;2023-05-29T11:58:01;4.10;;;3.67;;
59458;SDS011;45269;43.568;22.244;2023-05-29T12:00:30;3.95;;;3.55;;
59458;SDS011;45269;43.568;22.244;2023-05-29T12:03:00;5.13;;;3.58;;
59458;SDS011;45269;43.568;22.244;2023-05-29T12:05:32;4.45;;;3.90;;
59458;SDS011;45269;43.568;22.244;2023-05-29T12:07:58;4.90;;;3.60;;
59458;SDS011;45269;43.568;22.244;2023-05-29T12:10:26;4.60;;;4.20;;
59458;SDS011;45269;43.568;22.244;2023-05-29T12:12:52;4.43;;;3.85;;
59458;SDS011;45269;43.568;22.244;2023-05-29T12:15:17;4.03;;;3.70;;
59458;SDS011;45269;43.568;22.244;2023-05-29T12:17:44;5.65;;;4.40;;
59458;SDS011;45269;43.568;22.244;2023-05-29T12:20:09;4.80;;;4.15;;
59458;SDS011;45269;43.568;22.244;2023-05-29T12:22:36;4.47;;;3.97;;
59458;SDS011;45269;43.568;22.244;2023-05-29T12:25:11;3.92;;;3.63;;
59458;SDS011;45269;43.568;22.244;2023-05-29T12:27:38;4.38;;;3.78;;
59458;SDS011;45269;43.568;22.244;2023-05-29T12:30:08;5.40;;;3.92;;
59458;SDS011;45269;43.568;22.244;2023-05-29T12:32:34;3.80;;;3.50;;
59458;SDS011;45269;43.568;22.244;2023-05-29T12:35:00;4.05;;;3.70;;
59458;SDS011;45269;43.568;22.244;2023-05-29T12:37:26;4.35;;;3.95;;
59458;SDS011;45269;43.568;22.244;2023-05-29T12:42:37;3.80;;;3.50;;
59458;SDS011;45269;43.568;22.244;2023-05-29T12:45:03;3.55;;;3.22;;
59458;SDS011;45269;43.568;22.244;2023-05-29T12:47:29;3.50;;;3.20;;
59458;SDS011;45269;43.568;22.244;2023-05-29T12:49:54;3.67;;;3.38;;
59458;SDS011;45269;43.568;22.244;2023-05-29T12:52:21;4.30;;;3.58;;
59458;SDS011;45269;43.568;22.244;2023-05-29T12:54:48;3.90;;;3.50;;
59458;SDS011;45269;43.568;22.244;2023-05-29T12:57:13;4.28;;;3.83;;
59458;SDS011;45269;43.568;22.244;2023-05-29T12:59:39;5.22;;;3.50;;
59458;SDS011;45269;43.568;22.244;2023-05-29T13:02:05;4.32;;;3.50;;
59458;SDS011;45269;43.568;22.244;2023-05-29T13:04:33;3.72;;;3.40;;
59458;SDS011;45269;43.568;22.244;2023-05-29T13:06:58;4.10;;;3.25;;
59458;SDS011;45269;43.568;22.244;2023-05-29T13:09:24;3.53;;;3.22;;
59458;SDS011;45269;43.568;22.244;2023-05-29T13:11:50;4.63;;;4.13;;
59458;SDS011;45269;43.568;22.244;2023-05-29T13:14:15;3.60;;;3.30;;
59458;SDS011;45269;43.568;22.244;2023-05-29T13:16:40;3.97;;;3.35;;
59458;SDS011;45269;43.568;22.244;2023-05-29T13:19:06;3.20;;;2.92;;
59458;SDS011;45269;43.568;22.244;2023-05-29T13:21:31;3.30;;;3.00;;
59458;SDS011;45269;43.568;22.244;2023-05-29T13:23:57;3.20;;;2.90;;
59458;SDS011;45269;43.568;22.244;2023-05-29T13:26:22;3.55;;;2.97;;
59458;SDS011;45269;43.568;22.244;2023-05-29T13:28:48;3.35;;;3.05;;
59458;SDS011;45269;43.568;22.244;2023-05-29T13:31:13;3.15;;;2.92;;
59458;SDS011;45269;43.568;22.244;2023-05-29T13:33:39;4.32;;;3.30;;
59458;SDS011;45269;43.568;22.244;2023-05-29T13:36:04;3.50;;;3.20;;
59458;SDS011;45269;43.568;22.244;2023-05-29T13:38:30;4.20;;;3.28;;
59458;SDS011;45269;43.568;22.244;2023-05-29T13:40:55;3.17;;;2.88;;
59458;SDS011;45269;43.568;22.244;2023-05-29T13:43:21;3.60;;;3.10;;
59458;SDS011;45269;43.568;22.244;2023-05-29T13:45:46;3.28;;;2.97;;
59458;SDS011;45269;43.568;22.244;2023-05-29T13:48:11;3.20;;;2.70;;
59458;SDS011;45269;43.568;22.244;2023-05-29T13:50:37;3.50;;;2.92;;
59458;SDS011;45269;43.568;22.244;2023-05-29T13:53:02;4.22;;;3.13;;
59458;SDS011;45269;43.568;22.244;2023-05-29T13:55:28;3.28;;;2.92;;
59458;SDS011;45269;43.568;22.244;2023-05-29T13:57:53;4.03;;;3.05;;
59458;SDS011;45269;43.568;22.244;2023-05-29T14:00:18;3.33;;;3.10;;
59458;SDS011;45269;43.568;22.244;2023-05-29T14:02:44;2.90;;;2.70;;
59458;SDS011;45269;43.568;22.244;2023-05-29T14:05:09;4.68;;;3.53;;
59458;SDS011;45269;43.568;22.244;2023-05-29T14:07:36;3.47;;;3.17;;
59458;SDS011;45269;43.568;22.244;2023-05-29T14:10:01;3.75;;;3.20;;
59458;SDS011;45269;43.568;22.244;2023-05-29T14:12:27;3.47;;;2.67;;
59458;SDS011;45269;43.568;22.244;2023-05-29T14:14:52;3.17;;;2.88;;
59458;SDS011;45269;43.568;22.244;2023-05-29T14:17:18;4.28;;;3.03;;
59458;SDS011;45269;43.568;22.244;2023-05-29T14:19:43;4.47;;;2.65;;
59458;SDS011;45269;43.568;22.244;2023-05-29T14:22:10;5.35;;;3.10;;
59458;SDS011;45269;43.568;22.244;2023-05-29T14:24:36;3.67;;;2.60;;
59458;SDS011;45269;43.568;22.244;2023-05-29T14:27:02;3.60;;;3.17;;
59458;SDS011;45269;43.568;22.244;2023-05-29T14:29:27;4.90;;;3.30;;
59458;SDS011;45269;43.568;22.244;2023-05-29T14:31:53;4.80;;;3.30;;
59458;SDS011;45269;43.568;22.244;2023-05-29T14:34:18;3.63;;;3.22;;
59458;SDS011;45269;43.568;22.244;2023-05-29T14:36:43;3.58;;;3.25;;
59458;SDS011;45269;43.568;22.244;2023-05-29T14:39:11;4.70;;;3.23;;
59458;SDS011;45269;43.568;22.244;2023-05-29T14:41:37;3.58;;;3.28;;
59458;SDS011;45269;43.568;22.244;2023-05-29T14:44:03;5.15;;;3.47;;
59458;SDS011;45269;43.568;22.244;2023-05-29T14:46:28;4.45;;;3.08;;
59458;SDS011;45269;43.568;22.244;2023-05-29T14:48:57;3.93;;;3.63;;
59458;SDS011;45269;43.568;22.244;2023-05-29T14:51:22;3.55;;;3.25;;
59458;SDS011;45269;43.568;22.244;2023-05-29T14:53:50;3.30;;;3.00;;